createdAt,value
2017-07-21T00:02:26.207Z,99921.68
2017-07-21T00:04:53.736Z,99916.89
2017-07-21T00:07:21.248Z,99920.15
2017-07-21T00:09:48.737Z,99923.17
2017-07-21T00:12:16.287Z,99919.83
2017-07-21T00:14:43.798Z,99921.06
2017-07-21T00:17:23.917Z,99927.75
2017-07-21T00:19:51.414Z,99918.09
2017-07-21T00:22:18.973Z,99927.66
2017-07-21T00:24:46.460Z,99927.25
2017-07-21T00:27:14.000Z,99921.56
2017-07-21T00:29:41.532Z,99918.09
2017-07-21T00:32:09.093Z,99924.20
2017-07-21T00:34:36.588Z,99926.92
2017-07-21T00:37:04.168Z,99927.34
2017-07-21T00:39:31.677Z,99927.42
2017-07-21T00:41:59.168Z,99924.78
2017-07-21T00:44:26.680Z,99927.09
2017-07-21T00:49:46.569Z,99924.05
2017-07-21T00:52:14.073Z,99928.09
2017-07-21T00:54:41.588Z,99930.73
2017-07-21T00:57:09.076Z,99926.45
2017-07-21T00:59:36.584Z,99928.67
2017-07-21T01:02:04.068Z,99936.69
2017-07-21T01:04:31.584Z,99935.78
2017-07-21T01:06:59.076Z,99924.80
2017-07-21T01:09:26.593Z,99923.89
2017-07-21T01:11:54.076Z,99930.58
2017-07-21T01:14:21.592Z,99936.36
2017-07-21T01:19:42.042Z,99932.98
2017-07-21T01:22:09.603Z,99931.66
2017-07-21T01:24:37.104Z,99934.83
2017-07-21T01:27:04.629Z,99928.64
2017-07-21T01:29:32.112Z,99928.11
2017-07-21T01:31:59.636Z,99933.39
2017-07-21T01:34:27.128Z,99930.87
2017-07-21T01:36:54.647Z,99933.52
2017-07-21T01:39:22.136Z,99932.27
2017-07-21T01:41:49.657Z,99934.83
2017-07-21T01:44:17.149Z,99934.17
2017-07-21T01:49:36.944Z,99928.31
2017-07-21T01:52:04.449Z,99931.53
2017-07-21T01:54:31.931Z,99931.13
2017-07-21T01:56:59.444Z,99928.98
2017-07-21T01:59:26.932Z,99926.25
2017-07-21T02:01:54.425Z,99926.84
2017-07-21T02:04:21.953Z,99927.83
2017-07-21T02:06:49.442Z,99933.52
2017-07-21T02:09:16.953Z,99929.56
2017-07-21T02:11:44.446Z,99931.80
2017-07-21T02:14:12.577Z,99929.56
2017-07-21T02:16:40.096Z,99929.23
2017-07-21T02:19:07.607Z,99932.78
2017-07-21T02:21:35.092Z,99934.52
2017-07-21T02:24:02.608Z,99935.92
2017-07-21T02:26:30.096Z,99936.42
2017-07-21T02:28:57.594Z,99938.23
2017-07-21T02:31:25.136Z,99947.08
2017-07-21T02:33:52.632Z,99952.56
2017-07-21T02:36:20.147Z,99948.06
2017-07-21T02:38:47.756Z,99950.47
2017-07-21T02:41:15.264Z,99954.43
2017-07-21T02:43:42.748Z,99958.34
2017-07-21T02:46:10.306Z,99952.97
2017-07-21T02:48:37.801Z,99947.77
2017-07-21T02:51:05.341Z,99954.84
2017-07-21T02:53:32.852Z,99952.61
2017-07-21T02:56:00.393Z,99957.07
2017-07-21T02:58:28.081Z,99956.25
2017-07-21T03:00:55.592Z,99954.43
2017-07-21T03:03:23.117Z,99958.97
2017-07-21T03:05:50.613Z,99963.02
2017-07-21T03:08:18.120Z,99965.25
2017-07-21T03:10:45.600Z,99971.86
2017-07-21T03:13:13.111Z,99967.98
2017-07-21T03:15:40.592Z,99971.12
2017-07-21T03:18:08.175Z,99972.44
2017-07-21T03:20:35.717Z,99974.58
2017-07-21T03:23:15.117Z,99979.04
2017-07-21T03:25:42.604Z,99978.22
2017-07-21T03:28:10.093Z,99983.25
2017-07-21T03:30:37.624Z,99978.05
2017-07-21T03:33:05.107Z,99974.34
2017-07-21T03:35:32.616Z,99983.66
2017-07-21T03:38:00.112Z,99978.47
2017-07-21T03:40:27.628Z,99984.58
2017-07-21T03:42:55.124Z,99985.98
2017-07-21T03:45:22.636Z,99983.75
2017-07-21T03:47:50.125Z,99980.70
2017-07-21T03:50:17.640Z,99989.15
2017-07-21T03:52:45.133Z,99984.45
2017-07-21T03:55:12.633Z,99988.41
2017-07-21T03:57:40.217Z,99985.77
2017-07-21T04:00:07.712Z,99991.95
2017-07-21T04:02:35.225Z,99983.21
2017-07-21T04:05:02.708Z,99984.12
2017-07-21T04:07:30.232Z,99985.03
2017-07-21T04:09:57.724Z,99981.97
2017-07-21T04:12:25.254Z,99985.52
2017-07-21T04:14:52.740Z,99987.26
2017-07-21T04:17:30.785Z,99991.72
2017-07-21T04:19:58.281Z,99992.54
2017-07-21T04:22:25.800Z,99985.20
2017-07-21T04:24:53.315Z,99987.02
2017-07-21T04:27:20.842Z,99991.47
2017-07-21T04:29:48.389Z,99995.93
2017-07-21T04:32:15.889Z,99993.70
2017-07-21T04:34:43.404Z,100002.70
2017-07-21T04:37:10.896Z,99999.06
2017-07-21T04:39:38.412Z,99996.42
2017-07-21T04:42:05.898Z,99993.37
2017-07-21T04:44:33.420Z,100007.57
2017-07-21T04:49:53.712Z,99995.69
2017-07-21T04:52:21.209Z,100003.61
2017-07-21T04:54:48.721Z,100004.59
2017-07-21T04:57:16.216Z,100005.02
2017-07-21T04:59:43.740Z,100006.33
2017-07-21T05:02:11.229Z,100007.66
2017-07-21T05:04:38.724Z,100005.02
2017-07-21T05:07:06.313Z,100010.00
2017-07-21T05:09:33.861Z,100009.09
2017-07-21T05:12:01.388Z,100013.05
2017-07-21T05:14:28.886Z,100012.52
2017-07-21T05:19:49.468Z,100017.42
2017-07-21T05:22:16.991Z,100017.51
2017-07-21T05:24:44.493Z,100015.28
2017-07-21T05:27:12.013Z,100020.97
2017-07-21T05:29:39.513Z,100021.47
2017-07-21T05:32:07.032Z,100023.28
2017-07-21T05:34:34.568Z,100020.64
2017-07-21T05:37:02.189Z,100029.69
2017-07-21T05:39:29.692Z,100027.16
2017-07-21T05:41:57.184Z,100029.61
2017-07-21T05:44:24.700Z,100031.42
2017-07-21T05:49:44.581Z,100037.23
2017-07-21T05:52:12.079Z,100035.09
2017-07-21T05:54:39.604Z,100038.94
2017-07-21T05:57:07.167Z,100039.88
2017-07-21T05:59:34.685Z,100041.28
2017-07-21T06:02:02.185Z,100038.64
2017-07-21T06:04:29.696Z,100037.73
2017-07-21T06:06:57.193Z,100042.52
2017-07-21T06:09:24.721Z,100044.22
2017-07-21T06:11:52.212Z,100046.06
2017-07-21T06:14:19.785Z,100038.44
2017-07-21T06:16:47.338Z,100042.89
2017-07-21T06:19:14.833Z,100044.13
2017-07-21T06:21:42.348Z,100050.44
2017-07-21T06:24:09.844Z,100046.36
2017-07-21T06:26:37.373Z,100041.98
2017-07-21T06:29:04.884Z,100049.00
2017-07-21T06:31:32.397Z,100049.41
2017-07-21T06:33:59.969Z,100043.55
2017-07-21T06:36:27.489Z,100047.92
2017-07-21T06:38:54.992Z,100051.56
2017-07-21T06:41:22.585Z,100051.73
2017-07-21T06:43:50.072Z,100055.60
2017-07-21T06:46:18.792Z,100055.19
2017-07-21T06:48:46.280Z,100054.37
2017-07-21T06:51:13.816Z,100057.59
2017-07-21T06:53:41.332Z,100058.33
2017-07-21T06:56:08.844Z,100054.28
2017-07-21T06:58:36.372Z,100062.53
2017-07-21T07:01:03.868Z,100062.45
2017-07-21T07:03:31.466Z,100068.06
2017-07-21T07:05:58.961Z,100064.93
2017-07-21T07:08:26.473Z,100064.52
2017-07-21T07:10:54.052Z,100062.70
2017-07-21T07:13:21.572Z,100063.41
2017-07-21T07:15:49.063Z,100062.42
2017-07-21T07:18:16.587Z,100068.61
2017-07-21T07:20:44.072Z,100067.20
2017-07-21T07:23:11.563Z,100063.98
2017-07-21T07:25:39.085Z,100063.08
2017-07-21T07:28:06.676Z,100060.68
2017-07-21T07:30:34.219Z,100056.63
2017-07-21T07:33:01.713Z,100056.14
2017-07-21T07:35:29.233Z,100051.27
2017-07-21T07:37:56.727Z,100050.61
2017-07-21T07:40:24.249Z,100048.38
2017-07-21T07:42:51.740Z,100044.24
2017-07-21T07:45:19.264Z,100045.56
2017-07-21T07:47:52.553Z,100044.08
2017-07-21T07:50:20.093Z,100046.72
2017-07-21T07:52:47.588Z,100049.36
2017-07-21T07:55:15.084Z,100041.77
2017-07-21T07:57:42.622Z,100042.83
2017-07-21T08:00:10.113Z,100042.25
2017-07-21T08:02:37.639Z,100041.14
2017-07-21T08:05:05.133Z,100041.06
2017-07-21T08:07:32.653Z,100045.77
2017-07-21T08:10:00.152Z,100054.92
2017-07-21T08:12:27.664Z,100045.09
2017-07-21T08:14:55.269Z,100047.98
2017-07-21T08:17:22.913Z,100045.67
2017-07-21T08:19:50.431Z,100047.28
2017-07-21T08:22:17.976Z,100045.38
2017-07-21T08:24:45.464Z,100044.80
2017-07-21T08:27:12.996Z,100042.08
2017-07-21T08:29:40.485Z,100038.44
2017-07-21T08:32:07.975Z,100036.13
2017-07-21T08:34:35.484Z,100048.55
2017-07-21T08:37:02.967Z,100044.51
2017-07-21T08:39:30.489Z,100055.33
2017-07-21T08:41:57.976Z,100051.69
2017-07-21T08:44:25.505Z,100051.93
2017-07-21T08:49:46.043Z,100050.27
2017-07-21T08:52:13.569Z,100051.89
2017-07-21T08:54:41.105Z,100053.45
2017-07-21T08:57:08.602Z,100047.17
2017-07-21T08:59:36.120Z,100050.47
2017-07-21T09:02:03.722Z,100044.69
2017-07-21T09:04:31.281Z,100049.80
2017-07-21T09:06:58.782Z,100052.24
2017-07-21T09:09:26.304Z,100049.52
2017-07-21T09:11:53.788Z,100055.05
2017-07-21T09:14:21.297Z,100053.14
2017-07-21T09:19:41.089Z,100050.98
2017-07-21T09:22:08.613Z,100050.48
2017-07-21T09:24:36.108Z,100041.44
2017-07-21T09:27:03.664Z,100042.67
2017-07-21T09:29:31.163Z,100046.05
2017-07-21T09:31:58.709Z,100044.97
2017-07-21T09:34:26.200Z,100049.59
2017-07-21T09:36:53.716Z,100032.73
2017-07-21T09:39:21.209Z,100028.06
2017-07-21T09:41:48.725Z,100034.09
2017-07-21T09:44:16.269Z,100030.04
2017-07-21T09:49:36.238Z,100028.31
2017-07-21T09:52:03.798Z,100023.85
2017-07-21T09:54:31.326Z,100030.26
2017-07-21T09:56:58.865Z,100025.80
2017-07-21T09:59:26.386Z,100023.39
2017-07-21T10:01:53.881Z,100023.30
2017-07-21T10:04:21.400Z,100023.13
2017-07-21T10:06:49.087Z,100017.67
2017-07-21T10:09:16.621Z,100013.91
2017-07-21T10:11:44.128Z,100014.23
2017-07-21T10:14:11.647Z,100008.86
2017-07-21T10:19:32.044Z,100005.12
2017-07-21T10:21:59.533Z,100005.86
2017-07-21T10:24:27.053Z,100007.42
2017-07-21T10:26:54.539Z,100005.80
2017-07-21T10:29:22.039Z,99998.28
2017-07-21T10:31:49.568Z,100002.98
2017-07-21T10:34:17.064Z,100000.17
2017-07-21T10:36:44.572Z,99992.87
2017-07-21T10:39:12.060Z,99994.53
2017-07-21T10:41:39.592Z,99995.27
2017-07-21T10:44:07.116Z,99994.23
2017-07-21T10:49:27.273Z,99985.13
2017-07-21T10:51:54.807Z,99984.86
2017-07-21T10:54:22.428Z,99980.80
2017-07-21T10:56:49.960Z,99969.72
2017-07-21T10:59:17.448Z,99977.89
2017-07-21T11:01:45.016Z,99976.07
2017-07-21T11:04:12.505Z,99976.86
2017-07-21T11:06:39.995Z,99971.89
2017-07-21T11:09:07.513Z,99968.84
2017-07-21T11:11:35.003Z,99970.89
2017-07-21T11:14:02.529Z,99969.48
2017-07-21T11:16:30.116Z,99964.60
2017-07-21T11:18:57.632Z,99965.34
2017-07-21T11:21:25.125Z,99962.92
2017-07-21T11:23:52.636Z,99956.72
2017-07-21T11:26:20.130Z,99955.31
2017-07-21T11:28:48.157Z,99949.52
2017-07-21T11:31:15.644Z,99944.22
2017-07-21T11:33:43.132Z,99945.84
2017-07-21T11:36:10.685Z,99947.89
2017-07-21T11:38:38.920Z,99950.36
2017-07-21T11:41:06.566Z,99934.89
2017-07-21T11:43:34.068Z,99940.59
2017-07-21T11:46:01.716Z,99933.39
2017-07-21T11:48:29.225Z,99937.19
2017-07-21T11:50:56.745Z,99937.09
2017-07-21T11:53:24.241Z,99937.02
2017-07-21T11:55:51.732Z,99942.30
2017-07-21T11:58:19.357Z,99940.06
2017-07-21T12:00:46.839Z,99932.39
2017-07-21T12:03:14.361Z,99926.60
2017-07-21T12:05:41.863Z,99922.22
2017-07-21T12:08:10.084Z,99917.16
2017-07-21T12:10:37.594Z,99915.78
2017-07-21T12:13:05.180Z,99924.16
2017-07-21T12:15:32.665Z,99912.58
2017-07-21T12:18:00.237Z,99922.43
2017-07-21T12:20:27.849Z,99918.03
2017-07-21T12:22:55.333Z,99919.17
2017-07-21T12:25:22.845Z,99919.49
2017-07-21T12:27:50.349Z,99912.67
2017-07-21T12:30:17.894Z,99914.45
2017-07-21T12:32:45.386Z,99911.31
2017-07-21T12:35:12.905Z,99906.84
2017-07-21T12:37:40.413Z,99910.72
2017-07-21T12:40:07.954Z,99904.42
2017-07-21T12:42:35.440Z,99907.07
2017-07-21T12:45:02.972Z,99909.51
2017-07-21T12:47:30.476Z,99910.54
2017-07-21T12:49:58.336Z,99909.30
2017-07-21T12:52:25.848Z,99902.60
2017-07-21T12:54:53.336Z,99893.63
2017-07-21T12:57:20.851Z,99892.28
2017-07-21T12:59:48.349Z,99894.52
2017-07-21T13:02:15.893Z,99901.87
2017-07-21T13:04:43.382Z,99896.48
2017-07-21T13:07:10.896Z,99895.48
2017-07-21T13:09:38.408Z,99892.84
2017-07-21T13:12:05.937Z,99896.27
2017-07-21T13:14:33.430Z,99889.66
2017-07-21T13:17:00.939Z,99883.77
2017-07-21T13:19:28.453Z,99886.42
2017-07-21T13:21:55.949Z,99883.27
2017-07-21T13:24:23.464Z,99877.16
2017-07-21T13:26:50.953Z,99871.95
2017-07-21T13:29:18.484Z,99868.80
2017-07-21T13:31:45.972Z,99875.52
2017-07-21T13:34:13.484Z,99868.89
2017-07-21T13:36:40.969Z,99869.30
2017-07-21T13:39:08.509Z,99857.61
2017-07-21T13:41:35.992Z,99860.95
2017-07-21T13:44:03.505Z,99858.72
2017-07-21T13:46:31.152Z,99857.30
2017-07-21T13:48:58.680Z,99853.33
2017-07-21T13:51:26.200Z,99851.69
2017-07-21T13:53:53.689Z,99842.55
2017-07-21T13:56:21.207Z,99845.20
2017-07-21T13:58:48.693Z,99833.87
2017-07-21T14:01:16.204Z,99840.49
2017-07-21T14:03:43.688Z,99837.02
2017-07-21T14:06:11.227Z,99837.52
2017-07-21T14:08:38.720Z,99834.05
2017-07-21T14:11:06.229Z,99830.08
2017-07-21T14:13:33.745Z,99823.56
2017-07-21T14:16:02.024Z,99821.50
2017-07-21T14:18:29.567Z,99816.21
2017-07-21T14:20:57.868Z,99815.80
2017-07-21T14:23:25.396Z,99813.66
2017-07-21T14:25:52.916Z,99813.33
2017-07-21T14:28:20.427Z,99801.92
2017-07-21T14:30:47.910Z,99794.90
2017-07-21T14:33:15.438Z,99799.88
2017-07-21T14:35:42.932Z,99796.31
2017-07-21T14:38:10.483Z,99793.67
2017-07-21T14:40:38.004Z,99796.02
2017-07-21T14:43:05.513Z,99792.55
2017-07-21T14:45:33.025Z,99800.08
2017-07-21T14:48:00.561Z,99790.82
2017-07-21T14:50:28.136Z,99788.67
2017-07-21T14:52:55.719Z,99782.97
2017-07-21T14:55:23.254Z,99788.77
2017-07-21T14:57:50.761Z,99784.80
2017-07-21T15:00:18.335Z,99780.51
2017-07-21T15:02:45.848Z,99778.77
2017-07-21T15:05:13.493Z,99777.05
2017-07-21T15:07:41.160Z,99773.07
2017-07-21T15:10:08.653Z,99767.45
2017-07-21T15:12:36.171Z,99772.34
2017-07-21T15:15:03.694Z,99764.49
2017-07-21T15:17:31.185Z,99762.76
2017-07-21T15:19:58.737Z,99759.80
2017-07-21T15:22:26.228Z,99760.70
2017-07-21T15:24:53.752Z,99748.09
2017-07-21T15:27:21.340Z,99750.75
2017-07-21T15:29:49.189Z,99749.52
2017-07-21T15:32:16.672Z,99746.95
2017-07-21T15:34:44.504Z,99739.61
2017-07-21T15:37:12.017Z,99738.29
2017-07-21T15:39:40.344Z,99735.23
2017-07-21T15:42:07.872Z,99734.41
2017-07-21T15:44:35.385Z,99735.00
2017-07-21T15:49:55.216Z,99734.69
2017-07-21T15:52:22.708Z,99733.36
2017-07-21T15:54:50.229Z,99727.75
2017-07-21T15:57:17.717Z,99709.82
2017-07-21T15:59:45.272Z,99708.62
2017-07-21T16:02:12.769Z,99709.03
2017-07-21T16:04:40.284Z,99702.92
2017-07-21T16:07:07.800Z,99698.54
2017-07-21T16:09:35.321Z,99691.52
2017-07-21T16:12:02.808Z,99682.85
2017-07-21T16:14:30.300Z,99695.25
2017-07-21T16:19:50.318Z,99691.06
2017-07-21T16:22:17.841Z,99690.65
2017-07-21T16:24:45.328Z,99681.48
2017-07-21T16:27:12.844Z,99678.84
2017-07-21T16:29:40.332Z,99679.84
2017-07-21T16:32:07.896Z,99674.05
2017-07-21T16:34:35.428Z,99673.22
2017-07-21T16:37:02.936Z,99669.76
2017-07-21T16:39:30.424Z,99665.37
2017-07-21T16:41:57.944Z,99668.53
2017-07-21T16:44:25.572Z,99662.83
2017-07-21T16:46:53.068Z,99660.72
2017-07-21T16:49:20.588Z,99657.66
2017-07-21T16:51:48.913Z,99660.39
2017-07-21T16:54:16.424Z,99652.46
2017-07-21T16:56:43.908Z,99646.84
2017-07-21T16:59:11.420Z,99651.23
2017-07-21T17:01:39.509Z,99643.48
2017-07-21T17:04:07.043Z,99649.59
2017-07-21T17:06:34.569Z,99657.52
2017-07-21T17:09:02.060Z,99650.59
2017-07-21T17:11:29.577Z,99648.86
2017-07-21T17:13:57.110Z,99649.27
2017-07-21T17:16:24.645Z,99641.42
2017-07-21T17:18:52.144Z,99638.37
2017-07-21T17:21:19.721Z,99629.11
2017-07-21T17:23:47.212Z,99627.88
2017-07-21T17:26:14.736Z,99623.50
2017-07-21T17:28:42.240Z,99619.53
2017-07-21T17:31:09.789Z,99608.05
2017-07-21T17:33:37.278Z,99613.42
2017-07-21T17:36:04.762Z,99619.13
2017-07-21T17:38:32.280Z,99627.06
2017-07-21T17:40:59.828Z,99627.97
2017-07-21T17:43:27.440Z,99623.69
2017-07-21T17:45:54.936Z,99621.95
2017-07-21T17:48:22.456Z,99620.63
2017-07-21T17:50:49.951Z,99625.51
2017-07-21T17:53:17.460Z,99629.48
2017-07-21T17:55:44.956Z,99626.83
2017-07-21T17:58:12.468Z,99629.69
2017-07-21T18:00:39.956Z,99638.03
2017-07-21T18:03:07.496Z,99638.53
2017-07-21T18:05:34.981Z,99636.80
2017-07-21T18:08:02.481Z,99639.86
2017-07-21T18:10:30.003Z,99639.54
2017-07-21T18:12:57.495Z,99637.31
2017-07-21T18:15:25.017Z,99640.86
2017-07-21T18:17:52.504Z,99638.72
2017-07-21T18:20:20.020Z,99642.19
2017-07-21T18:22:47.556Z,99643.09
2017-07-21T18:25:15.091Z,99641.36
2017-07-21T18:27:42.581Z,99638.81
2017-07-21T18:30:10.096Z,99639.31
2017-07-21T18:32:37.597Z,99641.13
2017-07-21T18:35:05.238Z,99644.19
2017-07-21T18:37:32.787Z,99645.52
2017-07-21T18:40:00.272Z,99651.71
2017-07-21T18:42:27.861Z,99649.06
2017-07-21T18:44:55.396Z,99652.30
2017-07-21T18:47:46.217Z,99654.86
2017-07-21T18:50:14.402Z,99663.70
2017-07-21T18:52:42.029Z,99662.47
2017-07-21T18:55:09.614Z,99670.91
2017-07-21T18:57:37.129Z,99671.32
2017-07-21T19:00:04.644Z,99670.41
2017-07-21T19:02:32.173Z,99672.73
2017-07-21T19:04:59.691Z,99670.91
2017-07-21T19:07:27.209Z,99670.50
2017-07-21T19:09:54.692Z,99675.38
2017-07-21T19:12:22.194Z,99665.80
2017-07-21T19:14:49.711Z,99657.77
2017-07-21T19:20:09.588Z,99652.58
2017-07-21T19:22:37.072Z,99653.48
2017-07-21T19:25:04.609Z,99655.72
2017-07-21T19:27:32.091Z,99655.34
2017-07-21T19:29:59.626Z,99650.05
2017-07-21T19:32:27.113Z,99645.55
2017-07-21T19:34:54.640Z,99642.63
2017-07-21T19:37:22.136Z,99650.56
2017-07-21T19:39:49.647Z,99648.41
2017-07-21T19:42:17.132Z,99642.30
2017-07-21T19:44:44.672Z,99642.72
2017-07-21T19:47:12.158Z,99638.84
2017-07-21T19:49:39.649Z,99645.54
2017-07-21T19:52:07.177Z,99648.59
2017-07-21T19:54:34.668Z,99647.27
2017-07-21T19:57:02.176Z,99634.55
2017-07-21T19:59:29.672Z,99635.78
2017-07-21T20:01:57.196Z,99640.31
2017-07-21T20:04:24.713Z,99644.28
2017-07-21T20:06:52.223Z,99646.45
2017-07-21T20:09:19.707Z,99646.10
2017-07-21T20:11:53.088Z,99641.63
2017-07-21T20:14:20.747Z,99638.67
2017-07-21T20:19:41.032Z,99631.23
2017-07-21T20:22:08.565Z,99625.95
2017-07-21T20:24:36.048Z,99625.54
2017-07-21T20:27:03.541Z,99628.19
2017-07-21T20:29:31.073Z,99623.39
2017-07-21T20:31:58.560Z,99620.25
2017-07-21T20:34:26.423Z,99620.66
2017-07-21T20:36:54.174Z,99613.64
2017-07-21T20:39:21.741Z,99612.00
2017-07-21T20:41:49.229Z,99611.91
2017-07-21T20:44:16.752Z,99608.44
2017-07-21T20:46:44.972Z,99607.13
2017-07-21T20:49:12.498Z,99610.67
2017-07-21T20:51:40.033Z,99627.86
2017-07-21T20:54:07.569Z,99630.92
2017-07-21T20:56:35.090Z,99633.56
2017-07-21T20:59:02.615Z,99637.44
2017-07-21T21:01:30.174Z,99633.47
2017-07-21T21:03:57.664Z,99632.23
2017-07-21T21:06:25.180Z,99631.83
2017-07-21T21:08:52.675Z,99626.63
2017-07-21T21:11:20.240Z,99622.16
2017-07-21T21:13:47.724Z,99630.59
2017-07-21T21:16:15.204Z,99628.45
2017-07-21T21:18:42.753Z,99622.66
2017-07-21T21:21:10.240Z,99614.73
2017-07-21T21:23:37.752Z,99615.55
2017-07-21T21:26:05.232Z,99617.38
2017-07-21T21:28:32.744Z,99606.80
2017-07-21T21:31:00.224Z,99607.71
2017-07-21T21:33:27.736Z,99609.54
2017-07-21T21:35:55.216Z,99614.83
2017-07-21T21:38:22.744Z,99612.30
2017-07-21T21:40:50.272Z,99606.89
2017-07-21T21:43:17.756Z,99600.91
2017-07-21T21:45:45.264Z,99598.67
2017-07-21T21:48:12.756Z,99606.60
2017-07-21T21:50:40.279Z,99603.95
2017-07-21T21:53:07.768Z,99602.64
2017-07-21T21:55:35.288Z,99600.91
2017-07-21T21:58:02.775Z,99605.28
2017-07-21T22:00:30.272Z,99598.67
2017-07-21T22:02:57.790Z,99592.16
2017-07-21T22:05:25.357Z,99590.83
2017-07-21T22:07:52.928Z,99587.69
2017-07-21T22:10:20.413Z,99593.06
2017-07-21T22:12:47.968Z,99589.52
2017-07-21T22:15:27.292Z,99587.78
2017-07-21T22:17:55.686Z,99584.00
2017-07-21T22:20:23.183Z,99591.11
2017-07-21T22:22:50.674Z,99586.73
2017-07-21T22:25:18.251Z,99591.11
2017-07-21T22:27:46.313Z,99594.98
2017-07-21T22:30:13.868Z,99599.86
2017-07-21T22:32:41.356Z,99599.36
2017-07-21T22:35:08.874Z,99598.86
2017-07-21T22:37:36.368Z,99589.69
2017-07-21T22:40:03.881Z,99583.08
2017-07-21T22:42:31.375Z,99582.99
2017-07-21T22:44:58.890Z,99581.35
2017-07-21T22:47:26.483Z,99580.44
2017-07-21T22:49:54.016Z,99575.15
2017-07-21T22:52:21.513Z,99580.03
2017-07-21T22:54:49.513Z,99579.71
2017-07-21T22:57:17.166Z,99583.17
2017-07-21T22:59:44.656Z,99585.00
2017-07-21T23:02:12.168Z,99588.87
2017-07-21T23:04:39.660Z,99590.19
2017-07-21T23:07:07.208Z,99590.28
2017-07-21T23:09:34.692Z,99591.11
2017-07-21T23:12:02.208Z,99599.03
2017-07-21T23:14:30.075Z,99596.39
2017-07-21T23:16:57.674Z,99590.37
2017-07-21T23:19:25.201Z,99594.34
2017-07-21T23:21:52.701Z,99597.81
2017-07-21T23:24:20.220Z,99597.81
2017-07-21T23:26:47.716Z,99594.34
2017-07-21T23:29:15.229Z,99599.22
2017-07-21T23:31:42.756Z,99599.63
2017-07-21T23:34:10.264Z,99596.58
2017-07-21T23:36:37.769Z,99597.48
2017-07-21T23:39:05.315Z,99600.54
2017-07-21T23:41:32.804Z,99597.58
2017-07-21T23:44:00.316Z,99588.73
2017-07-21T23:46:27.899Z,99589.65
2017-07-21T23:48:55.429Z,99592.29
2017-07-21T23:51:22.917Z,99589.65
2017-07-21T23:53:50.408Z,99579.07
2017-07-21T23:56:17.921Z,99586.59
2017-07-21T23:58:45.416Z,99581.72
